WETTERDATEN

GESTERN
Time Temp. Taup. r.Fe. Windrich Windstärke Windböe Druck 1h Prec. 24h Prec.
00:03 8.4 3.1 69 315 0.8 2.2 1011.1 0.1010 0.0000
00:13 8.3 2.7 68 326 0.8 1.9 1010.8 0.0000 0.0000
00:22 8.3 2.7 68 322 0.3 2.2 1010.5 0.0000 0.0000
00:33 8.3 2.7 68 322 0.3 1.1 1010.3 0.0000 0.0000
00:43 8.3 2.7 68 348 0.3 1.4 1010 0.0000 0.0000
00:53 8.4 2.8 68 0 0.8 3.1 1009.9 0.0000 0.0000
01:03 8.4 2.8 68 315 0.8 2.5 1009.7 0.0000 0.0000
01:13 8.5 3.1 69 315 0.8 2.2 1009.5 0.0000 0.0000
01:23 8.5 3.1 69 315 0.8 1.4 1009.2 0.0000 0.0000
01:33 8.5 3.1 69 315 0.8 3.1 1009.1 0.0000 0.0000
01:50 8.4 3.3 70 0 0.8 3.1 1008.7 0.3030 0.3000
02:01 8.4 3.5 71 35 0.8 1.9 1008.5 0.3030 0.3000
02:11 8.3 3.4 71 308 0.8 1.9 1008.6 0.4040 0.4000
02:21 8.3 3.4 71 257 0.8 2.2 1008.5 0.6060 0.6000
02:31 8.2 3.5 72 303 0.8 1.9 1008.8 1.3130 1.3000
02:41 8.1 3.4 72 291 0.8 2.2 1008.6 1.5150 1.6000
02:51 7.9 3.2 72 280 0.8 2.2 1008.5 1.5150 1.8000
03:01 7.8 3.3 73 310 0.8 1.9 1008.4 1.6160 1.9000
03:12 7.8 3.3 73 300 0.8 1.9 1008.3 1.5150 1.9000
03:22 7.7 3.2 73 270 0.3 1.9 1008.3 1.3130 1.9000
03:32 7.7 3.2 73 286 0.8 1.9 1008.2 0.6060 1.9000
03:41 7.7 3.2 73 307 0.8 1.9 1008.2 0.3030 1.9000
03:52 7.7 3.2 73 270 0.8 2.5 1008.1 0.1010 1.9000
04:02 7.6 3.1 73 286 0.8 2.2 1008.3 0.0000 1.9000
04:12 7.5 3 73 281 0.8 1.4 1008.4 0.1010 2.0000
04:16 7.5 3 73 285 0.8 1.9 1008.4 0.3030 2.2000
04:26 7.5 3 73 288 0.8 1.9 1008.4 0.6060 2.5000
04:36 7.4 3.1 74 326 0.8 2.5 1008.6 0.7070 2.6000
04:46 7.3 3 74 341 0.8 1.4 1008.5 0.9090 2.8000
04:57 7.2 2.9 74 306 0.8 1.9 1008.6 1.0100 2.9000
05:06 7.2 2.9 74 293 0.8 2.2 1009 1.0100 3.0000
05:16 7.1 2.8 74 284 0.8 2.2 1009.1 0.7070 3.0000
05:27 7 2.7 74 286 0.8 2.5 1009.4 0.8080 3.3000
05:37 6.8 2.5 74 295 1.1 3.3 1009.7 1.0100 3.7000
05:47 6.5 2.2 74 253 1.1 3.6 1009.7 1.0100 3.9000
05:57 6.4 2.1 74 251 0.8 1.9 1009.8 1.0100 4.0000
06:07 6.3 2 74 321 0.8 1.9 1010.1 1.0100 4.0000
06:17 6.3 2 74 270 0.3 1.4 1010.2 0.9090 4.0000
06:27 6.2 2.1 75 270 0.3 1.4 1010.3 0.5050 4.0000
06:42 6.2 1.9 74 292 0.8 1.9 1010.3 0.1010 4.0000
06:52 6.2 1.9 74 290 0.8 1.4 1010.8 0.0000 4.0000
07:02 6.2 1.9 74 315 0.8 1.4 1010.8 0.0000 4.0000
07:12 6.2 1.9 74 284 0.8 1.9 1011.2 0.0000 4.0000
07:22 6.2 1.9 74 304 0.8 1.9 1011.6 0.0000 4.0000
07:32 6.3 1.8 73 281 0.8 1.9 1011.8 0.0000 4.0000
07:42 6.3 1.8 73 302 0.8 2.2 1012.3 0.0000 4.0000
07:53 6.4 1.9 73 270 0.8 1.9 1012.6 0.0000 4.0000
07:54 6.4 1.9 73 282 0.8 1.9 1012.5 0.0000 4.0000
08:05 6.4 1.9 73 280 0.8 1.9 1012.8 0.0000 4.0000
08:15 6.5 2 73 258 0.8 1.9 1012.9 0.0000 4.0000
08:25 6.6 2.1 73 288 0.8 1.9 1013.1 0.0000 4.0000
08:35 6.7 2 72 309 0.8 1.9 1013.3 0.0000 4.0000
08:45 6.7 2 72 270 0.3 1.4 1013.4 0.0000 4.0000
08:55 6.9 2.2 72 284 0.8 1.4 1013.5 0.0000 4.0000
09:05 7.4 2.5 71 270 0.8 1.4 1013.5 0.0000 4.0000
09:16 8.1 3.2 71 270 0.8 2.2 1013.5 0.0000 4.0000
09:26 8.6 3.2 69 288 0.8 1.1 1013.8 0.0000 4.0000
09:35 8.9 3.5 69 304 0.8 1.4 1013.8 0.0000 4.0000
09:45 9 3.4 68 315 0.8 2.2 1013.9 0.0000 4.0000
09:56 9 3.4 68 308 0.8 2.2 1014.1 0.0000 4.0000
10:06 8.8 3 67 270 0.8 2.2 1014.3 0.0000 4.0000
10:16 8.5 2.9 68 309 0.8 1.9 1014.6 0.0000 4.0000
10:26 8.3 2.7 68 286 0.8 2.2 1014.8 0.0000 4.0000
10:37 8.3 2.7 68 302 0.8 1.4 1014.8 0.0000 4.0000
10:46 8.5 2.9 68 280 0.8 2.2 1014.9 0.0000 4.0000
10:56 8.8 3.2 68 315 0.8 1.9 1015 0.0000 4.0000
11:07 9.1 3.3 67 270 0.8 2.2 1015.2 0.0000 4.0000
11:17 9.2 3 65 288 0.8 1.9 1015.2 0.0000 4.0000
11:27 8.9 2.5 64 270 0.8 4.2 1015.6 0.0000 4.0000
11:37 8.6 2.4 65 293 0.8 3.1 1015.7 0.0000 4.0000
11:47 8.6 2.4 65 310 0.8 1.9 1015.8 0.0000 4.0000
11:57 8.5 2.3 65 303 0.8 2.2 1016.1 0.0000 4.0000
12:07 8.5 2.3 65 281 0.8 2.2 1016.1 0.0000 4.0000
12:18 8.4 2.2 65 305 0.3 1.9 1016.3 0.0000 4.0000
12:28 8.4 2.2 65 270 0.8 1.9 1016.2 0.0000 4.0000
12:37 8.4 2 64 288 0.8 2.2 1016.3 0.0000 4.0000
12:48 8.5 2.1 64 295 0.8 2.2 1016.4 0.0000 4.0000
12:58 8.5 2.1 64 325 0.8 3.3 1016.3 0.0000 4.0000
13:08 8.5 1.9 63 302 0.8 2.2 1016.5 0.0000 4.0000
13:18 8.6 2 63 281 0.8 1.9 1016.4 0.0000 4.0000
13:28 8.8 2.4 64 284 0.8 1.9 1016.5 0.0000 4.0000
13:39 8.9 2.5 64 304 0.8 2.2 1016.5 0.0000 4.0000
13:48 8.9 2.2 63 292 0.8 2.2 1016.6 0.0000 4.0000
13:58 8.9 2.2 63 291 0.8 2.2 1016.6 0.0000 4.0000
14:09 8.9 2.2 63 270 0.8 2.2 1016.7 0.0000 4.0000
14:19 8.9 2.2 63 270 0.8 2.5 1016.6 0.0000 4.0000
14:29 9 2.3 63 280 0.8 1.4 1016.8 0.0000 4.0000
14:39 8.9 2.2 63 298 0.8 3.3 1016.7 0.0000 4.0000
14:49 9 2.3 63 270 0.8 1.9 1016.6 0.0000 4.0000
14:59 9.1 2.2 62 245 0.8 2.5 1016.8 0.0000 4.0000
15:09 9.1 2.4 63 315 0.8 2.2 1016.8 0.0000 4.0000
15:20 9.1 2.2 62 270 0.8 1.9 1016.8 0.0000 4.0000
15:30 9.2 2.3 62 284 0.8 3.1 1016.8 0.0000 4.0000
15:40 9.1 2.2 62 315 0.8 2.5 1016.8 0.0000 4.0000
15:49 9.1 2 61 290 0.8 1.9 1017 0.1010 4.1000
16:00 9 1.9 61 341 0.8 2.2 1016.8 0.1010 4.1000
16:10 9 1.9 61 270 0.8 1.9 1017 0.1010 4.1000
16:20 8.9 1.8 61 270 0.8 2.2 1017.2 0.1010 4.1000
16:30 8.9 2 62 270 0.3 1.4 1017 0.1010 4.1000
16:41 8.9 2 62 270 0.8 1.9 1017.2 0.1010 4.1000
16:51 8.8 1.9 62 280 0.8 1.9 1017 0.0000 4.1000
17:00 8.7 1.8 62 270 0.3 1.1 1017 0.0000 4.1000
17:10 8.6 1.7 62 270 0.3 1.4 1017.1 0.0000 4.1000
17:21 8.6 1.7 62 270 0.3 1.4 1017.3 0.0000 4.1000
17:31 8.5 1.6 62 288 0.8 1.1 1017.2 0.0000 4.1000
17:41 8.4 1.3 61 306 0.8 1.9 1017.4 0.0000 4.1000
17:52 8.3 1.2 61 293 0.8 1.9 1017.7 0.0000 4.1000
18:01 8.2 1.1 61 270 0.3 2.2 1017.7 0.0000 4.1000
18:11 8 1.2 62 270 0.3 1.1 1017.5 0.0000 4.1000
18:21 7.9 1.1 62 270 0.3 1.1 1017.7 0.0000 4.1000
18:32 7.7 1.1 63 270 0.3 1.1 1017.6 0.0000 4.1000
18:42 7.5 0.9 63 270 0.3 1.4 1017.6 0.0000 4.1000
18:51 7.3 0.9 64 270 0.3 1.1 1017.6 0.0000 4.1000
19:02 7.1 1 65 270 0.3 1.4 1017.5 0.0000 4.1000
19:12 6.9 0.8 65 270 0.3 1.1 1017.5 0.0000 4.1000
19:22 6.7 0.8 66 270 0.3 0.8 1017.4 0.0000 4.1000
19:28 6.6 0.7 66 270 0.3 0.8 1017.5 0.0000 4.1000
19:38 6.5 0.6 66 270 0.3 1.1 1017.5 0.0000 4.1000
19:48 6.5 0.6 66 270 0.3 1.1 1017.4 0.0000 4.1000
19:58 6.5 0.6 66 270 0.3 1.1 1017.4 0.0000 4.1000
20:08 6.4 0.5 66 270 0.3 1.1 1017.3 0.0000 4.1000
20:19 6.4 0.7 67 270 0.3 1.1 1017.4 0.0000 4.1000
20:29 6.4 0.7 67 270 0.3 1.1 1017.2 0.0000 4.1000
20:39 6.5 0.8 67 315 0.3 0.8 1017.1 0.0000 4.1000
20:48 6.6 0.9 67 307 0.3 1.1 1017.2 0.0000 4.1000
20:59 6.7 1 67 270 0.3 0.8 1017.1 0.0000 4.1000
21:09 6.8 1.1 67 270 0.3 1.1 1017.2 0.0000 4.1000
21:19 6.9 1.2 67 315 0.3 1.1 1017.1 0.0000 4.1000
21:29 7 1.3 67 270 0.3 1.4 1017.1 0.0000 4.1000
21:39 7 1.3 67 302 0.3 2.2 1017 0.0000 4.1000
21:49 7 1.5 68 270 0.3 1.1 1017.1 0.0000 4.1000
21:59 7 1.5 68 270 0.3 1.1 1016.9 0.0000 4.1000
22:10 7 1.7 69 270 0.3 1.1 1016.7 0.0000 4.1000
22:20 7 1.9 70 270 0.3 1.1 1016.6 0.0000 4.1000
22:30 7 1.9 70 270 0.3 0.8 1016.6 0.0000 4.1000
22:40 7 2.1 71 322 0.3 1.1 1016.5 0.0000 4.1000
22:51 7 2.1 71 331 0.3 1.4 1016.5 0.0000 4.1000
23:00 7 2.1 71 315 0.3 1.1 1016.6 0.1010 4.2000
23:10 7 2.1 71 315 0.3 1.1 1016.5 0.1010 4.2000
23:21 7 2.3 72 270 0.3 1.1 1016.4 0.1010 4.2000
23:31 7 2.3 72 315 0.3 1.1 1016.1 0.1010 4.2000
23:41 7 2.3 72 321 0.3 1.1 1016.1 0.1010 4.2000
23:50 7 2.3 72 315 0.3 1.1 1016 0.1010 4.2000

TAGESSTATISTIK

2020-02-19
TEMPERATUR
MITTEL
7.8
MAXIMUM
9.2
11:17
MINIMUM
6.2
06:27
LUFTDRUCK
MITTEL
1014.0
MAXIMUM
1017.7
17:52
MINIMUM
1008.1
03:52
TAUPUNKT
MITTEL
2.2
MAXIMUM
3.5
02:01
MINIMUM
0.5
20:08
FEUCHTIGKEIT
MITTEL
68
MAXIMUM
75
06:27
MINIMUM
61
15:49
WINDSTÄRKE
MITTEL
0.6
MAXIMUM
1.1
05:37
WINDBÖE
MITTEL
1.8
MAXIMUM
4.2
11:27
WINDRICHTUNG
VORHERRSCHENDE
W
58.7%
N
3.5
NO
0.7
O
0.0
SO
0.0
S
0.0
SW
0.7
W
58.7
NW
36.4
NIEDERSCHLAG
REGEN STUNDE
1.6
REGEN TAG
4.2
TEMPERATUR (°C)
MINIMUM
6.2
MAXIMUM
9.2
MITTEL
7.8
LUFTDRUCK (hpa)
MINIMUM
1008.1
MAXIMUM
1017.7
MITTEL
1014.0
MESSGERÄT